Time;durP1;ratioP1;P1;durP2;ratioP2;P2;SDS_P1;SDS_P2;PMS_P1;PMS_P2;Temp;Humidity;BMP_temperature;BMP_pressure;BME280_temperature;BME280_humidity;BME280_pressure;Samples;Min_cycle;Max_cycle;Signal;HPM_P1;HPM_P2
2021/01/05 00:01:30;;;;;;;33.40;21.45;;;;;;;3.84;79.63;97271.59;10126177;29;20076;-79
2021/01/05 00:06:50;;;;;;;36.42;21.85;;;;;;;3.80;79.54;97274.03;10153788;29;20381;-79
2021/01/05 00:12:13;;;;;;;34.63;22.92;;;;;;;3.80;80.24;97257.47;10153209;29;20060;-79
2021/01/05 00:17:33;;;;;;;35.30;23.05;;;;;;;3.78;80.34;97269.06;10154376;29;20076;-80
2021/01/05 00:22:53;;;;;;;34.35;23.02;;;;;;;3.77;79.43;97259.31;10127168;29;20061;-79
2021/01/05 00:28:13;;;;;;;36.10;22.85;;;;;;;3.76;80.11;97257.84;10128200;29;20060;-79
2021/01/05 00:33:34;;;;;;;37.78;24.15;;;;;;;3.64;80.19;97254.03;10141964;29;20071;-80
2021/01/05 00:38:54;;;;;;;41.08;24.02;;;;;;;3.57;80.25;97252.03;10142809;29;20075;-79
2021/01/05 00:44:14;;;;;;;38.75;24.73;;;;;;;3.56;80.15;97262.34;10142362;29;20061;-79
2021/01/05 00:49:36;;;;;;;39.45;24.23;;;;;;;3.61;79.98;97260.69;10155610;29;20179;-79
2021/01/05 00:54:56;;;;;;;37.85;24.20;;;;;;;3.64;79.71;97267.84;10141832;29;20419;-79
2021/01/05 01:00:24;;;;;;;36.03;24.02;;;;;;;3.68;80.28;97260.66;10141385;29;20072;-80
2021/01/05 01:05:49;;;;;;;38.25;25.55;;;;;;;3.70;80.31;97266.34;10142708;29;20550;-80
2021/01/05 01:11:10;;;;;;;41.63;24.95;;;;;;;3.65;80.07;97267.28;10145065;29;20061;-80
2021/01/05 01:16:31;;;;;;;36.33;24.60;;;;;;;3.65;79.93;97270.03;10158889;29;20068;-79
2021/01/05 01:21:54;;;;;;;39.08;25.13;;;;;;;3.64;80.23;97262.31;10145405;29;20064;-80
2021/01/05 01:27:15;;;;;;;36.40;23.95;;;;;;;3.61;80.02;97269.69;10117714;29;20095;-80
2021/01/05 01:32:36;;;;;;;39.30;24.55;;;;;;;3.60;80.24;97267.50;10133350;29;20203;-80
2021/01/05 01:37:56;;;;;;;40.15;25.50;;;;;;;3.60;80.37;97261.97;10149846;29;20116;-80
2021/01/05 01:43:17;;;;;;;39.70;24.95;;;;;;;3.54;79.89;97259.41;10138208;29;20060;-80
2021/01/05 01:48:38;;;;;;;40.92;26.05;;;;;;;3.50;79.62;97258.34;10169174;29;20064;-81
2021/01/05 01:54:10;;;;;;;36.30;24.13;;;;;;;3.48;80.11;97271.97;10142719;29;20085;-80
2021/01/05 02:00:09;;;;;;;37.42;23.35;;;;;;;3.45;80.19;97260.75;10169913;29;20071;-80
2021/01/05 02:06:17;;;;;;;39.72;24.70;;;;;;;3.43;80.15;97262.59;10169786;29;20084;-80
2021/01/05 02:12:04;;;;;;;35.92;23.80;;;;;;;3.42;80.30;97270.16;10134528;29;20056;-80
2021/01/05 02:18:04;;;;;;;35.45;23.42;;;;;;;3.40;79.67;97267.22;10154139;29;20124;-80
2021/01/05 02:23:35;;;;;;;36.70;23.85;;;;;;;3.35;79.90;97264.66;10144984;29;20060;-80
2021/01/05 02:29:00;;;;;;;36.33;23.85;;;;;;;3.35;80.09;97264.66;10144703;29;20060;-80
2021/01/05 02:35:02;;;;;;;40.65;24.42;;;;;;;3.34;79.92;97268.72;10119874;29;20061;-80
2021/01/05 02:40:44;;;;;;;39.30;23.83;;;;;;;3.30;80.13;97258.06;10159570;29;20065;-80
2021/01/05 02:46:46;;;;;;;36.70;23.48;;;;;;;3.25;80.39;97250.72;10172519;29;20445;-80
2021/01/05 02:52:41;;;;;;;33.08;22.60;;;;;;;3.20;80.45;97243.38;10157435;29;20060;-80
2021/01/05 02:58:56;;;;;;;36.72;23.70;;;;;;;3.19;80.36;97243.94;10136469;29;20092;-80
2021/01/05 03:04:35;;;;;;;36.33;22.35;;;;;;;3.23;80.01;97241.53;10160815;29;20072;-80
2021/01/05 03:11:03;;;;;;;36.13;23.60;;;;;;;3.21;79.86;97227.56;10135022;29;20085;-80
2021/01/05 03:17:08;;;;;;;33.90;23.55;;;;;;;3.22;80.11;97229.78;10138355;29;20068;-80
2021/01/05 03:22:59;;;;;;;37.20;24.15;;;;;;;3.18;79.73;97226.63;10073481;29;20061;-80
2021/01/05 03:28:51;;;;;;;34.50;22.55;;;;;;;3.09;80.13;97219.72;10072946;29;20069;-81
2021/01/05 03:34:36;;;;;;;39.78;23.95;;;;;;;3.04;80.27;97220.63;10093050;29;20057;-80
2021/01/05 03:40:18;;;;;;;38.22;24.77;;;;;;;2.98;80.12;97211.09;10082437;29;20070;-80
2021/01/05 03:46:02;;;;;;;37.15;24.48;;;;;;;2.91;80.23;97212.59;10081008;29;20113;-81
2021/01/05 03:51:52;;;;;;;39.83;24.38;;;;;;;2.85;80.26;97206.53;10134283;29;20076;-81
2021/01/05 03:57:35;;;;;;;37.58;23.80;;;;;;;2.82;79.62;97207.66;10164369;29;20060;-81
2021/01/05 04:03:15;;;;;;;38.45;24.08;;;;;;;2.76;80.22;97198.84;10151645;29;20093;-81
2021/01/05 04:08:42;;;;;;;;;;;;;;;2.74;80.42;97198.66;10144336;29;20085;-81
2021/01/05 04:14:20;;;;;;;37.55;24.10;;;;;;;2.67;80.06;97199.41;10180815;29;19930;-81
2021/01/05 04:19:47;;;;;;;36.22;23.52;;;;;;;2.64;80.50;97200.53;10168372;29;20060;-80
2021/01/05 04:25:16;;;;;;;38.97;24.85;;;;;;;2.67;80.25;97202.16;10170491;29;20087;-80
2021/01/05 04:30:58;;;;;;;38.58;24.00;;;;;;;2.71;80.59;97197.75;10169573;29;20080;-81
2021/01/05 04:36:24;;;;;;;38.58;24.70;;;;;;;2.71;80.00;97199.78;10148337;29;20065;-81
2021/01/05 04:41:56;;;;;;;34.72;23.73;;;;;;;2.75;80.03;97200.13;10154415;29;20083;-80
2021/01/05 04:47:50;;;;;;;38.15;23.73;;;;;;;2.86;79.93;97213.50;10184137;29;20055;-81
2021/01/05 04:53:47;;;;;;;37.60;23.95;;;;;;;2.89;79.67;97215.16;10170274;29;20067;-80
2021/01/05 04:59:09;;;;;;;36.42;24.13;;;;;;;2.93;79.69;97206.53;10153997;29;20088;-80
2021/01/05 05:04:41;;;;;;;39.80;24.53;;;;;;;2.95;79.75;97212.94;10155246;29;20075;-81
2021/01/05 05:10:17;;;;;;;36.78;24.30;;;;;;;2.97;79.88;97224.13;10156356;29;20064;-81
2021/01/05 05:15:43;;;;;;;38.67;24.50;;;;;;;2.94;79.47;97214.22;10143962;29;20057;-81
2021/01/05 05:21:32;;;;;;;39.67;24.27;;;;;;;2.95;79.87;97223.97;10167015;29;20057;-80
2021/01/05 05:27:44;;;;;;;38.63;24.70;;;;;;;2.99;79.50;97221.59;10181654;29;20076;-81
2021/01/05 05:33:37;;;;;;;38.63;25.25;;;;;;;2.99;79.85;97216.06;10160607;29;20066;-81
2021/01/05 05:39:43;;;;;;;38.03;24.02;;;;;;;3.04;80.25;97220.63;10158166;29;20060;-81
2021/01/05 05:45:35;;;;;;;36.53;24.60;;;;;;;3.07;80.03;97233.31;10181482;29;20067;-81
2021/01/05 05:51:22;;;;;;;41.70;25.10;;;;;;;3.10;79.82;97214.94;10041449;29;20148;-80
2021/01/05 05:56:58;;;;;;;36.40;23.85;;;;;;;3.11;80.30;97219.88;10029447;29;20072;-81
2021/01/05 06:02:22;;;;;;;38.92;24.50;;;;;;;3.08;79.61;97200.94;10041597;29;20667;-81
2021/01/05 06:07:46;;;;;;;39.58;24.25;;;;;;;3.14;79.42;97218.75;10041868;29;20069;-81
2021/01/05 06:13:10;;;;;;;;;;;;;;;3.11;79.86;97214.38;10041871;29;20074;-80
2021/01/05 06:18:40;;;;;;;38.60;24.38;;;;;;;3.04;79.30;97215.13;10075336;29;19927;-80
2021/01/05 06:24:06;;;;;;;39.50;23.98;;;;;;;3.05;79.35;97218.59;10141004;29;20057;-81
2021/01/05 06:29:31;;;;;;;41.67;24.70;;;;;;;3.06;79.78;97225.59;10148250;29;20055;-80
2021/01/05 06:34:56;;;;;;;39.35;23.67;;;;;;;3.10;79.91;97237.00;10159296;29;20120;-80
2021/01/05 06:40:41;;;;;;;38.30;24.70;;;;;;;3.09;79.93;97232.75;10139307;29;20195;-81
2021/01/05 06:46:22;;;;;;;41.50;24.50;;;;;;;3.06;79.51;97240.09;10127742;29;20075;-81
2021/01/05 06:52:14;;;;;;;38.35;23.13;;;;;;;3.08;80.08;97243.03;10149105;29;20167;-81
2021/01/05 06:57:53;;;;;;;39.00;24.38;;;;;;;3.10;79.58;97240.47;10152556;29;20089;-81
2021/01/05 07:03:35;;;;;;;38.88;23.17;;;;;;;3.11;79.95;97246.72;10504950;23;20052;-80
2021/01/05 07:09:16;;;;;;;35.30;22.20;;;;;;;3.11;79.60;97247.47;10158521;29;20061;-80
2021/01/05 07:15:02;;;;;;;40.75;23.67;;;;;;;3.13;79.72;97253.16;10185179;29;20061;-81
2021/01/05 07:21:11;;;;;;;37.22;22.50;;;;;;;3.18;80.12;97256.97;10158523;29;20074;-80
2021/01/05 07:27:04;;;;;;;36.78;22.73;;;;;;;3.26;79.32;97260.44;10137211;29;20076;-82
2021/01/05 07:32:38;;;;;;;39.20;23.05;;;;;;;3.23;79.60;97258.81;10125930;29;20060;-80
2021/01/05 07:38:29;;;;;;;38.08;23.02;;;;;;;3.28;79.70;97265.41;10149977;29;20096;-81
2021/01/05 07:44:01;;;;;;;37.28;23.20;;;;;;;3.30;79.86;97271.13;10112405;23;20056;-79
2021/01/05 07:50:01;;;;;;;37.60;22.40;;;;;;;3.25;79.09;97272.78;10170833;29;20172;-80
2021/01/05 07:55:51;;;;;;;32.43;21.13;;;;;;;3.25;79.55;97272.03;10182279;29;20061;-82
2021/01/05 08:01:41;;;;;;;35.50;21.30;;;;;;;3.29;79.78;97272.41;10173467;29;20293;-81
2021/01/05 08:07:50;;;;;;;36.08;21.55;;;;;;;3.24;79.14;97276.09;10095117;29;20066;-82
2021/01/05 08:20:53;;;;;;;34.50;20.58;;;;;;;3.31;78.88;97269.81;10421906;23;20108;-82
2021/01/05 08:27:10;;;;;;;31.33;19.88;;;;;;;3.36;79.27;97274.41;10125702;29;20071;-82
2021/01/05 08:33:21;;;;;;;33.08;19.77;;;;;;;3.35;78.98;97267.41;10037172;29;20091;-82
2021/01/05 08:39:03;;;;;;;32.70;19.77;;;;;;;3.37;78.88;97273.09;10089762;29;20065;-81
2021/01/05 08:44:32;;;;;;;34.45;20.70;;;;;;;3.34;79.20;97274.22;10116963;29;20077;-81
2021/01/05 08:50:28;;;;;;;29.88;19.58;;;;;;;3.36;78.75;97268.88;10113865;29;20060;-81
2021/01/05 08:56:13;;;;;;;33.72;19.58;;;;;;;3.38;79.13;97274.59;10135766;29;20072;-81
2021/01/05 09:52:45;;;;;;;26.27;16.45;;;;;;;3.67;78.81;97275.03;13072798;22;878341;-76
2021/01/05 09:58:05;;;;;;;27.20;16.08;;;;;;;3.76;78.36;97268.13;13005181;22;20035;-79
2021/01/05 10:03:26;;;;;;;23.55;15.95;;;;;;;3.96;78.63;97251.28;13006554;22;20093;-79
2021/01/05 10:08:46;;;;;;;25.65;15.82;;;;;;;4.05;78.15;97260.97;13003143;22;20034;-78
2021/01/05 10:14:07;;;;;;;24.13;15.73;;;;;;;3.98;78.10;97259.00;13023946;22;20034;-76
2021/01/05 10:19:27;;;;;;;28.23;17.27;;;;;;;3.83;77.69;97259.81;12985414;22;20053;-76
2021/01/05 10:24:48;;;;;;;27.52;15.73;;;;;;;3.74;78.16;97260.44;13026376;22;20066;-75
2021/01/05 10:30:10;;;;;;;27.13;16.00;;;;;;;3.70;78.24;97254.56;12983081;22;20047;-75
2021/01/05 10:35:30;;;;;;;24.50;15.85;;;;;;;3.69;77.84;97259.34;13008405;22;20065;-76
2021/01/05 10:40:51;;;;;;;24.48;15.07;;;;;;;3.71;77.75;97261.56;13005841;22;20386;-76
2021/01/05 10:46:11;;;;;;;24.02;15.27;;;;;;;3.61;77.85;97241.38;12977119;22;20361;-77
2021/01/05 10:51:32;;;;;;;23.77;14.52;;;;;;;3.61;77.81;97241.38;13008454;22;20028;-77
2021/01/05 10:57:00;;;;;;;20.38;13.43;;;;;;;3.66;77.55;97235.63;13014035;22;20474;-78
2021/01/05 11:02:21;;;;;;;19.60;13.25;;;;;;;3.86;77.75;97233.88;12991694;22;20523;-76
2021/01/05 11:07:43;;;;;;;16.95;11.88;;;;;;;3.98;77.86;97217.59;12991312;22;20028;-77
2021/01/05 11:13:03;;;;;;;21.15;13.48;;;;;;;4.09;77.57;97219.91;12947018;22;20059;-77
2021/01/05 11:18:23;;;;;;;16.70;11.20;;;;;;;4.09;77.71;97217.13;13012862;22;20103;-77
2021/01/05 11:23:43;;;;;;;18.65;12.15;;;;;;;4.07;77.57;97219.72;13011528;22;20343;-77
2021/01/05 11:29:03;;;;;;;16.27;11.30;;;;;;;4.09;77.17;97221.94;12968194;22;20039;-77
2021/01/05 11:34:24;;;;;;;15.23;10.27;;;;;;;4.01;76.89;97228.22;12990184;22;20027;-74
2021/01/05 11:39:46;;;;;;;18.65;9.73;;;;;;;3.97;77.11;97216.84;12967540;22;20028;-75
2021/01/05 11:45:07;;;;;;;14.02;9.93;;;;;;;3.95;76.90;97213.16;12969617;22;20030;-76
2021/01/05 11:50:27;;;;;;;14.38;9.40;;;;;;;4.01;77.41;97213.69;13009942;22;20035;-74
2021/01/05 11:55:47;;;;;;;13.10;8.85;;;;;;;4.19;77.19;97209.69;12967141;22;20028;-73
2021/01/05 12:01:08;;;;;;;14.52;9.50;;;;;;;4.37;76.78;97207.69;13010955;22;20346;-76
2021/01/05 12:06:27;;;;;;;12.70;8.48;;;;;;;4.45;76.13;97202.13;12988648;22;20457;-76
2021/01/05 12:11:47;;;;;;;13.52;8.20;;;;;;;4.30;76.81;97206.47;12964377;22;20031;-76
2021/01/05 12:17:07;;;;;;;14.13;8.50;;;;;;;4.25;76.40;97210.19;12963375;22;20062;-75
2021/01/05 12:22:29;;;;;;;11.98;8.05;;;;;;;4.06;75.71;97203.72;12986861;22;20081;-76
2021/01/05 12:27:54;;;;;;;12.82;8.13;;;;;;;4.06;76.16;97212.00;12986743;22;20076;-76
2021/01/05 12:33:14;;;;;;;12.65;7.75;;;;;;;4.02;76.81;97206.88;12986572;22;20058;-76
2021/01/05 12:38:35;;;;;;;12.65;8.13;;;;;;;3.99;75.66;97208.72;13007968;22;20054;-76
2021/01/05 12:43:54;;;;;;;13.20;8.50;;;;;;;4.03;77.13;97205.56;13008755;22;20028;-74
2021/01/05 12:49:15;;;;;;;11.30;7.80;;;;;;;3.97;76.71;97210.59;12985721;22;20051;-74
2021/01/05 12:54:35;;;;;;;12.80;8.05;;;;;;;3.81;76.69;97209.22;12990354;22;20032;-74
2021/01/05 12:59:56;;;;;;;12.10;7.93;;;;;;;3.73;76.20;97212.75;12964592;22;20024;-75
2021/01/05 13:05:15;;;;;;;11.70;7.80;;;;;;;3.65;76.41;97211.34;12984663;22;20024;-74
2021/01/05 13:10:35;;;;;;;10.93;7.05;;;;;;;3.61;76.43;97208.25;13008767;22;20031;-75
2021/01/05 13:15:55;;;;;;;11.55;7.43;;;;;;;3.49;76.51;97205.19;13010753;22;20058;-75
2021/01/05 13:21:44;;;;;;;11.55;7.15;;;;;;;3.44;76.27;97211.63;12966352;22;20028;-74
2021/01/05 13:27:04;;;;;;;10.93;6.72;;;;;;;3.37;76.32;97207.63;12966541;22;20051;-75
2021/01/05 13:32:28;;;;;;;10.43;7.30;;;;;;;3.38;76.78;97200.84;12969815;22;20031;-77
2021/01/05 13:37:48;;;;;;;10.20;6.97;;;;;;;3.35;76.51;97212.22;12989197;22;20024;-76
2021/01/05 13:43:10;;;;;;;10.40;7.72;;;;;;;3.28;76.78;97210.22;12966419;22;20438;-78
2021/01/05 13:48:30;;;;;;;13.18;8.23;;;;;;;3.27;76.57;97209.50;13012116;22;20028;-77
2021/01/05 13:53:51;;;;;;;11.38;7.65;;;;;;;3.26;76.18;97204.56;12990851;22;20094;-76
2021/01/05 14:05:30;;;;;;;9.30;7.00;;;;;;;3.12;76.48;97204.78;13117456;22;20453;-76
2021/01/05 14:10:51;;;;;;;12.13;8.02;;;;;;;3.11;76.16;97206.09;13081218;22;20027;-79
2021/01/05 14:16:23;;;;;;;9.90;7.07;;;;;;;3.03;76.51;97199.13;13115683;22;20031;-76
2021/01/05 14:21:43;;;;;;;11.70;7.78;;;;;;;2.99;76.40;97202.28;13131659;22;20026;-76
2021/01/05 14:27:04;;;;;;;8.93;6.35;;;;;;;2.96;76.32;97203.38;13112967;22;20022;-78
2021/01/05 14:32:26;;;;;;;15.10;8.65;;;;;;;2.97;76.04;97199.31;13121118;22;20076;-77
2021/01/05 14:37:49;;;;;;;410.88;41.55;;;;;;;2.97;76.78;97202.09;13120329;22;20054;-74
2021/01/05 14:43:09;;;;;;;26.05;9.50;;;;;;;2.97;76.09;97210.34;13079312;22;20069;-80
2021/01/05 14:48:29;;;;;;;128.18;21.83;;;;;;;2.86;76.07;97216.28;13163414;22;20030;-80
2021/01/05 14:53:53;;;;;;;53.88;11.43;;;;;;;2.80;76.76;97213.00;13167461;22;20027;-80
2021/01/05 15:14:53;;;;;;;11.38;7.78;;;;;;;2.69;76.54;97229.91;13183075;22;20022;-82
2021/01/05 15:21:01;;;;;;;15.85;7.45;;;;;;;2.72;76.33;97237.09;12997319;22;20026;-82
2021/01/05 15:27:52;;;;;;;13.32;7.18;;;;;;;2.66;76.65;97240.03;12917540;23;20025;-83
2021/01/05 15:35:24;;;;;;;;;;;;;;;;;;;;;
2021/01/05 15:54:30;;;;;;;10.50;7.47;;;;;;;2.56;76.36;97245.34;13103560;22;20027;-83
2021/01/05 16:00:51;;;;;;;11.57;7.32;;;;;;;2.58;76.45;97248.28;12840094;23;20096;-82
2021/01/05 16:08:14;;;;;;;;;;;;;;;;;;;;;
2021/01/05 16:15:07;;;;;;;12.27;7.18;;;;;;;2.55;76.53;97252.16;12999353;22;20026;-82
2021/01/05 16:21:13;;;;;;;;;;;;;;;;;;;;;
2021/01/05 16:27:01;;;;;;;8.90;6.05;;;;;;;2.59;76.22;97255.25;12795788;23;20029;-82
2021/01/05 16:33:09;;;;;;;10.77;6.60;;;;;;;2.54;76.44;97250.69;12833420;22;20047;-83
2021/01/05 16:51:16;;;;;;;8.10;5.68;;;;;;;2.50;75.96;97247.56;13100659;22;19921;-81
2021/01/05 16:56:36;;;;;;;10.05;6.18;;;;;;;2.45;76.39;97250.50;13098543;22;20033;-76
2021/01/05 17:01:56;;;;;;;8.90;6.00;;;;;;;2.43;76.38;97253.81;13093993;22;20106;-77
2021/01/05 17:07:16;;;;;;;12.15;7.45;;;;;;;2.37;76.20;97255.28;13138105;22;20027;-76
2021/01/05 17:12:35;;;;;;;11.02;7.38;;;;;;;2.31;76.58;97258.22;13115416;22;20026;-75
2021/01/05 17:18:08;;;;;;;13.55;8.38;;;;;;;2.38;76.28;97256.75;13121066;22;20033;-79
2021/01/05 17:23:28;;;;;;;13.93;9.18;;;;;;;2.40;76.50;97248.66;13145550;22;20046;-77
2021/01/05 17:28:48;;;;;;;13.15;8.65;;;;;;;2.42;76.42;97252.38;13115618;22;20055;-77
2021/01/05 17:34:11;;;;;;;14.82;9.38;;;;;;;2.38;76.48;97251.25;13118083;22;20053;-81
2021/01/05 17:39:31;;;;;;;10.35;7.50;;;;;;;2.37;76.31;97245.00;13071858;22;20149;-76
2021/01/05 17:44:51;;;;;;;12.95;8.45;;;;;;;2.39;76.63;97247.94;13139000;22;20026;-78
2021/01/05 17:56:56;;;;;;;10.88;7.22;;;;;;;2.36;75.71;97253.81;13030615;22;20029;-81
2021/01/05 18:02:24;;;;;;;9.35;6.60;;;;;;;2.31;76.75;97252.72;13049896;22;20034;-78
2021/01/05 18:07:46;;;;;;;8.35;6.03;;;;;;;2.28;75.77;97256.56;13113199;22;20026;-78
2021/01/05 18:13:07;;;;;;;9.63;6.75;;;;;;;2.25;76.74;97255.66;13174878;22;20027;-79
2021/01/05 18:32:34;;;;;;;11.30;7.18;;;;;;;2.29;76.47;97263.53;13091483;22;20031;-81
2021/01/05 18:44:01;;;;;;;11.93;8.77;;;;;;;2.26;76.61;97270.91;13142397;22;20097;-78
2021/01/05 18:49:22;;;;;;;13.23;9.98;;;;;;;2.28;76.23;97267.59;13113553;22;20027;-82
2021/01/05 18:54:45;;;;;;;13.00;9.32;;;;;;;2.26;76.05;97267.41;13132995;22;20031;-80
2021/01/05 19:00:06;;;;;;;13.52;8.85;;;;;;;2.30;76.11;97271.25;13123975;22;20030;-75
2021/01/05 19:05:26;;;;;;;11.48;8.25;;;;;;;2.32;76.81;97270.72;13074953;22;20026;-76
2021/01/05 19:10:47;;;;;;;12.55;8.45;;;;;;;2.29;76.37;97271.81;13118022;22;20520;-73
2021/01/05 19:16:07;;;;;;;12.13;8.88;;;;;;;2.33;76.77;97276.97;13074619;22;20137;-75
2021/01/05 19:21:27;;;;;;;11.57;8.30;;;;;;;2.35;76.40;97288.91;13117978;22;20341;-74
2021/01/05 19:26:54;;;;;;;13.32;8.75;;;;;;;2.32;76.11;97283.72;13139855;22;20034;-75
2021/01/05 19:32:15;;;;;;;13.00;8.02;;;;;;;2.29;75.80;97289.06;13144780;22;20027;-77
2021/01/05 19:37:35;;;;;;;9.75;6.78;;;;;;;2.24;76.17;97294.78;13096244;22;20026;-74
2021/01/05 19:42:55;;;;;;;10.85;7.47;;;;;;;2.27;76.42;97277.88;13124610;22;20027;-79
2021/01/05 19:48:16;;;;;;;11.45;7.38;;;;;;;2.27;76.18;97277.88;13125619;22;20026;-78
2021/01/05 19:53:36;;;;;;;10.88;7.28;;;;;;;2.22;75.95;97272.53;13140760;22;20030;-75
2021/01/05 19:58:55;;;;;;;9.10;6.13;;;;;;;2.26;76.03;97272.91;13140300;22;20034;-73
2021/01/05 20:04:16;;;;;;;10.18;6.97;;;;;;;2.23;75.58;97269.25;13140635;22;20034;-76
2021/01/05 20:09:36;;;;;;;10.73;7.00;;;;;;;2.22;75.88;97264.28;13117118;22;20353;-75
2021/01/05 20:14:56;;;;;;;9.07;7.18;;;;;;;2.14;76.68;97263.56;13116705;22;20026;-76
2021/01/05 20:20:16;;;;;;;9.10;6.57;;;;;;;2.14;76.17;97267.03;13072643;22;20080;-76
2021/01/05 20:25:44;;;;;;;8.23;5.47;;;;;;;2.08;75.96;97268.50;13139726;22;20027;-76
2021/01/05 20:31:04;;;;;;;9.02;5.38;;;;;;;2.09;76.08;97264.44;13140866;22;20369;-76
2021/01/05 20:36:29;;;;;;;6.95;4.88;;;;;;;2.09;75.77;97264.44;13094555;22;20033;-76
2021/01/05 20:41:48;;;;;;;8.80;5.57;;;;;;;2.08;76.22;97260.22;13127962;22;20027;-77
2021/01/05 20:47:09;;;;;;;8.10;4.75;;;;;;;2.06;75.84;97263.53;13139480;22;20023;-76
2021/01/05 20:52:32;;;;;;;6.25;4.43;;;;;;;2.09;76.37;97265.19;13139162;22;20410;-76
2021/01/05 20:57:53;;;;;;;7.10;4.53;;;;;;;2.09;76.22;97262.44;13139276;22;20027;-76
2021/01/05 21:03:16;;;;;;;5.25;3.75;;;;;;;2.08;76.38;97257.47;13139501;22;20311;-77
2021/01/05 21:08:40;;;;;;;6.22;3.85;;;;;;;2.09;76.63;97253.44;13118581;22;20033;-75
2021/01/05 21:14:00;;;;;;;5.55;3.75;;;;;;;2.09;76.83;97253.44;13140376;22;20027;-75
2021/01/05 21:19:20;;;;;;;6.82;4.13;;;;;;;2.06;76.24;97254.53;13142832;22;20027;-75
2021/01/05 21:24:40;;;;;;;6.28;4.93;;;;;;;2.06;76.64;97252.53;13118921;22;20420;-75
2021/01/05 21:30:01;;;;;;;6.63;4.82;;;;;;;2.04;76.75;97252.34;13141492;22;20395;-75
2021/01/05 21:35:24;;;;;;;6.15;4.15;;;;;;;2.05;76.20;97253.06;13139761;22;20097;-74
2021/01/05 21:40:46;;;;;;;4.65;3.70;;;;;;;2.07;76.34;97253.25;13107860;22;20081;-74
2021/01/05 21:46:08;;;;;;;5.88;3.97;;;;;;;2.04;76.31;97248.84;13118453;22;20098;-74
2021/01/05 21:51:30;;;;;;;4.55;3.22;;;;;;;1.95;76.04;97255.63;13139356;22;20458;-74
2021/01/05 21:56:51;;;;;;;3.38;2.40;;;;;;;1.92;76.80;97234.69;13116969;22;20027;-74
2021/01/05 22:02:14;;;;;;;4.32;2.70;;;;;;;1.96;76.42;97229.56;13139807;22;20345;-74
2021/01/05 22:07:34;;;;;;;4.72;2.80;;;;;;;1.95;76.56;97230.84;13139930;22;20090;-74
2021/01/05 22:12:53;;;;;;;3.95;2.75;;;;;;;1.91;76.41;97228.44;13141071;22;20026;-74
2021/01/05 22:18:13;;;;;;;3.85;3.05;;;;;;;1.91;76.50;97228.44;13116563;22;20036;-74
2021/01/05 22:23:33;;;;;;;4.05;2.95;;;;;;;1.89;75.99;97224.78;13094573;22;20029;-74
2021/01/05 22:28:54;;;;;;;5.05;2.95;;;;;;;1.87;75.88;97225.34;13117708;22;20097;-74
2021/01/05 22:34:14;;;;;;;3.67;2.67;;;;;;;1.90;75.65;97229.00;13117680;22;20337;-74
2021/01/05 22:39:34;;;;;;;3.28;2.63;;;;;;;1.86;76.01;97234.88;13091564;22;20031;-74
2021/01/05 22:44:54;;;;;;;4.30;3.05;;;;;;;1.85;76.27;97240.94;13098150;22;20530;-74
2021/01/05 22:50:16;;;;;;;4.07;2.65;;;;;;;1.88;76.27;97250.84;13120920;22;20027;-74
2021/01/05 22:55:39;;;;;;;6.03;2.75;;;;;;;1.93;76.40;97258.94;13143160;22;20457;-74
2021/01/05 23:00:59;;;;;;;3.58;2.75;;;;;;;1.97;76.29;97259.31;13077332;22;20023;-74
2021/01/05 23:06:19;;;;;;;3.88;2.47;;;;;;;1.93;76.48;97245.19;13099590;22;20058;-74
2021/01/05 23:11:41;;;;;;;4.18;3.10;;;;;;;1.96;76.28;97246.81;13098624;22;20080;-74
2021/01/05 23:17:00;;;;;;;6.15;3.10;;;;;;;1.94;75.84;97234.91;13142851;22;20098;-74
2021/01/05 23:22:20;;;;;;;5.05;3.08;;;;;;;1.93;75.56;97225.16;13076166;22;20026;-74
2021/01/05 23:27:40;;;;;;;4.47;2.63;;;;;;;1.93;76.29;97225.16;13144108;22;20053;-74
2021/01/05 23:33:00;;;;;;;4.50;3.05;;;;;;;1.94;76.18;97219.13;13142613;22;20027;-74
2021/01/05 23:38:28;;;;;;;4.82;2.78;;;;;;;1.92;76.01;97216.16;13120584;22;20027;-74
2021/01/05 23:43:48;;;;;;;3.53;2.67;;;;;;;1.91;75.95;97220.19;13077639;22;20033;-74
2021/01/05 23:49:08;;;;;;;4.07;2.22;;;;;;;1.91;75.82;97217.44;13143363;22;20027;-74
2021/01/05 23:54:28;;;;;;;4.05;2.60;;;;;;;1.87;75.80;97216.34;13118788;22;20027;-74
2021/01/05 23:59:48;;;;;;;4.05;2.80;;;;;;;1.86;75.68;97212.13;13141635;22;20026;-74
